sensor_id;sensor_type;location;lat;lon;timestamp;pressure;altitude;pressure_sealevel;temperature;humidity
47260;BME280;32999;52.412;4.890;2023-02-07T00:33:02;104078.81;;;2.10;100.00
47260;BME280;32999;52.412;4.890;2023-02-07T00:38:10;104089.47;;;2.07;100.00
47260;BME280;32999;52.412;4.890;2023-02-07T00:43:18;104079.81;;;2.05;100.00
47260;BME280;32999;52.412;4.890;2023-02-07T00:59:32;104069.47;;;1.99;100.00
47260;BME280;32999;52.412;4.890;2023-02-07T01:04:44;104068.63;;;1.99;100.00
47260;BME280;32999;52.412;4.890;2023-02-07T01:10:02;104073.03;;;1.98;100.00
47260;BME280;32999;52.412;4.890;2023-02-07T01:15:17;104012.50;;;1.69;100.00
47260;BME280;32999;52.412;4.890;2023-02-07T01:20:57;104067.69;;;2.00;100.00
47260;BME280;32999;52.412;4.890;2023-02-07T01:50:23;104057.53;;;1.89;100.00
47260;BME280;32999;52.412;4.890;2023-02-07T01:56:20;104082.22;;;1.87;100.00
47260;BME280;32999;52.412;4.890;2023-02-07T02:01:38;104077.91;;;1.84;100.00
47260;BME280;32999;52.412;4.890;2023-02-07T02:12:54;103946.28;;;0.99;100.00
47260;BME280;32999;52.412;4.890;2023-02-07T02:18:14;104077.19;;;1.79;100.00
47260;BME280;32999;52.412;4.890;2023-02-07T02:23:38;104082.56;;;1.76;100.00
47260;BME280;32999;52.412;4.890;2023-02-07T02:29:38;104076.38;;;1.77;100.00
47260;BME280;32999;52.412;4.890;2023-02-07T02:34:51;104071.19;;;1.74;100.00
47260;BME280;32999;52.412;4.890;2023-02-07T02:40:05;104072.97;;;1.74;100.00
47260;BME280;32999;52.412;4.890;2023-02-07T02:45:11;104064.91;;;1.78;100.00
47260;BME280;32999;52.412;4.890;2023-02-07T02:50:22;104084.38;;;1.74;100.00
47260;BME280;32999;52.412;4.890;2023-02-07T02:55:45;104060.81;;;1.69;100.00
47260;BME280;32999;52.412;4.890;2023-02-07T03:01:13;104067.09;;;1.65;100.00
47260;BME280;32999;52.412;4.890;2023-02-07T03:06:31;104061.88;;;1.64;100.00
47260;BME280;32999;52.412;4.890;2023-02-07T03:11:43;104041.47;;;1.43;100.00
47260;BME280;32999;52.412;4.890;2023-02-07T03:16:54;103941.19;;;0.93;100.00
47260;BME280;32999;52.412;4.890;2023-02-07T03:22:03;104052.53;;;1.54;100.00
47260;BME280;32999;52.412;4.890;2023-02-07T03:27:13;104057.00;;;1.52;100.00
47260;BME280;32999;52.412;4.890;2023-02-07T03:32:18;104033.25;;;1.52;100.00
47260;BME280;32999;52.412;4.890;2023-02-07T03:37:25;104029.72;;;1.53;100.00
47260;BME280;32999;52.412;4.890;2023-02-07T03:42:30;104033.94;;;1.58;100.00
47260;BME280;32999;52.412;4.890;2023-02-07T03:47:41;104030.44;;;1.58;100.00
47260;BME280;32999;52.412;4.890;2023-02-07T03:52:47;104037.53;;;1.56;100.00
47260;BME280;32999;52.412;4.890;2023-02-07T03:57:49;103958.38;;;1.05;100.00
47260;BME280;32999;52.412;4.890;2023-02-07T04:02:51;104032.25;;;1.56;100.00
47260;BME280;32999;52.412;4.890;2023-02-07T04:07:55;104039.16;;;1.60;100.00
47260;BME280;32999;52.412;4.890;2023-02-07T04:12:57;103990.16;;;1.26;100.00
47260;BME280;32999;52.412;4.890;2023-02-07T04:17:59;104043.53;;;1.61;100.00
47260;BME280;32999;52.412;4.890;2023-02-07T04:23:02;104030.78;;;1.74;100.00
47260;BME280;32999;52.412;4.890;2023-02-07T04:28:04;103932.00;;;1.06;100.00
47260;BME280;32999;52.412;4.890;2023-02-07T04:33:16;104048.69;;;1.90;100.00
47260;BME280;32999;52.412;4.890;2023-02-07T05:26:04;104036.63;;;1.83;100.00
47260;BME280;32999;52.412;4.890;2023-02-07T05:31:39;104050.97;;;1.75;100.00
47260;BME280;32999;52.412;4.890;2023-02-07T05:36:58;104037.25;;;1.65;100.00
47260;BME280;32999;52.412;4.890;2023-02-07T05:42:01;103922.88;;;0.90;100.00
47260;BME280;32999;52.412;4.890;2023-02-07T05:47:04;104042.03;;;1.52;100.00
47260;BME280;32999;52.412;4.890;2023-02-07T05:52:06;103937.28;;;0.77;100.00
47260;BME280;32999;52.412;4.890;2023-02-07T05:57:08;104046.94;;;1.36;100.00
47260;BME280;32999;52.412;4.890;2023-02-07T06:02:11;103901.44;;;0.45;100.00
47260;BME280;32999;52.412;4.890;2023-02-07T06:07:13;103976.53;;;0.86;100.00
47260;BME280;32999;52.412;4.890;2023-02-07T06:12:15;103921.72;;;0.41;100.00
47260;BME280;32999;52.412;4.890;2023-02-07T06:17:18;104043.97;;;1.19;100.00
47260;BME280;32999;52.412;4.890;2023-02-07T06:22:20;103984.63;;;0.78;100.00
47260;BME280;32999;52.412;4.890;2023-02-07T06:27:22;104043.81;;;1.24;100.00
47260;BME280;32999;52.412;4.890;2023-02-07T06:32:25;104032.16;;;1.03;100.00
47260;BME280;32999;52.412;4.890;2023-02-07T06:37:27;104051.91;;;1.18;100.00
47260;BME280;32999;52.412;4.890;2023-02-07T06:42:29;104046.75;;;1.15;100.00
47260;BME280;32999;52.412;4.890;2023-02-07T06:47:32;104056.56;;;1.10;100.00
47260;BME280;32999;52.412;4.890;2023-02-07T06:52:34;104001.59;;;0.70;100.00
47260;BME280;32999;52.412;4.890;2023-02-07T06:57:36;103958.06;;;0.27;100.00
47260;BME280;32999;52.412;4.890;2023-02-07T07:02:39;104066.03;;;0.86;100.00
47260;BME280;32999;52.412;4.890;2023-02-07T07:07:41;103976.63;;;0.22;100.00
47260;BME280;32999;52.412;4.890;2023-02-07T07:12:45;103989.69;;;0.56;100.00
47260;BME280;32999;52.412;4.890;2023-02-07T07:17:48;104094.81;;;1.23;100.00
47260;BME280;32999;52.412;4.890;2023-02-07T07:22:50;104108.53;;;1.32;100.00
47260;BME280;32999;52.412;4.890;2023-02-07T07:27:52;104056.69;;;1.05;100.00
47260;BME280;32999;52.412;4.890;2023-02-07T07:32:55;104050.56;;;1.05;100.00
47260;BME280;32999;52.412;4.890;2023-02-07T07:37:57;104106.63;;;1.38;100.00
47260;BME280;32999;52.412;4.890;2023-02-07T07:42:59;104107.41;;;1.41;100.00
47260;BME280;32999;52.412;4.890;2023-02-07T07:48:03;104095.91;;;1.44;100.00
47260;BME280;32999;52.412;4.890;2023-02-07T07:53:05;104100.97;;;1.50;100.00
47260;BME280;32999;52.412;4.890;2023-02-07T07:58:07;104099.16;;;1.52;100.00
47260;BME280;32999;52.412;4.890;2023-02-07T08:15:39;104097.38;;;1.80;100.00
47260;BME280;32999;52.412;4.890;2023-02-07T12:22:17;104030.16;;;8.82;95.14
47260;BME280;32999;52.412;4.890;2023-02-07T12:27:24;104028.81;;;8.90;98.86
47260;BME280;32999;52.412;4.890;2023-02-07T12:32:42;104049.09;;;8.49;96.72
47260;BME280;32999;52.412;4.890;2023-02-07T12:38:53;104040.72;;;8.56;95.30
47260;BME280;32999;52.412;4.890;2023-02-07T12:44:21;104032.91;;;8.67;99.46
47260;BME280;32999;52.412;4.890;2023-02-07T12:49:38;104046.81;;;8.86;100.00
47260;BME280;32999;52.412;4.890;2023-02-07T12:54:52;104003.09;;;8.74;100.00
47260;BME280;32999;52.412;4.890;2023-02-07T13:00:03;104001.66;;;8.83;100.00
47260;BME280;32999;52.412;4.890;2023-02-07T13:05:30;104032.25;;;8.63;97.73
47260;BME280;32999;52.412;4.890;2023-02-07T13:10:46;104038.63;;;8.61;100.00
47260;BME280;32999;52.412;4.890;2023-02-07T13:15:59;104033.56;;;8.42;98.06
47260;BME280;32999;52.412;4.890;2023-02-07T13:23:23;104021.22;;;8.41;100.00
47260;BME280;32999;52.412;4.890;2023-02-07T13:27:02;104009.41;;;8.59;100.00
47260;BME280;32999;52.412;4.890;2023-02-07T13:32:09;103990.75;;;8.59;100.00
47260;BME280;32999;52.412;4.890;2023-02-07T13:37:14;104004.03;;;8.88;98.17
47260;BME280;32999;52.412;4.890;2023-02-07T13:42:23;103949.38;;;8.24;93.09
47260;BME280;32999;52.412;4.890;2023-02-07T14:50:28;103977.75;;;7.36;100.00
47260;BME280;32999;52.412;4.890;2023-02-07T20:16:54;104031.19;;;2.14;100.00
47260;BME280;32999;52.412;4.890;2023-02-07T20:22:33;104033.09;;;2.09;100.00
47260;BME280;32999;52.412;4.890;2023-02-07T20:28:14;104032.34;;;2.05;100.00
47260;BME280;32999;52.412;4.890;2023-02-07T20:33:40;104046.53;;;2.01;100.00
47260;BME280;32999;52.412;4.890;2023-02-07T20:39:11;104012.13;;;1.80;100.00
47260;BME280;32999;52.412;4.890;2023-02-07T20:44:27;104045.06;;;1.94;100.00
47260;BME280;32999;52.412;4.890;2023-02-07T20:49:40;104038.09;;;1.92;100.00
47260;BME280;32999;52.412;4.890;2023-02-07T20:54:42;103987.59;;;1.51;100.00
47260;BME280;32999;52.412;4.890;2023-02-07T20:59:44;104050.63;;;1.85;100.00
47260;BME280;32999;52.412;4.890;2023-02-07T21:04:50;104026.59;;;1.68;100.00
47260;BME280;32999;52.412;4.890;2023-02-07T21:09:51;103932.19;;;1.00;100.00
47260;BME280;32999;52.412;4.890;2023-02-07T21:14:54;104032.47;;;1.76;100.00
47260;BME280;32999;52.412;4.890;2023-02-07T21:20:00;104031.81;;;1.69;100.00
47260;BME280;32999;52.412;4.890;2023-02-07T21:25:02;104029.28;;;1.66;100.00
47260;BME280;32999;52.412;4.890;2023-02-07T21:30:05;104048.78;;;1.61;100.00
47260;BME280;32999;52.412;4.890;2023-02-07T21:35:09;104029.66;;;1.54;100.00
47260;BME280;32999;52.412;4.890;2023-02-07T21:40:10;104013.09;;;1.51;100.00
47260;BME280;32999;52.412;4.890;2023-02-07T21:45:12;104012.28;;;1.49;100.00
47260;BME280;32999;52.412;4.890;2023-02-07T21:50:16;104017.63;;;1.47;100.00
47260;BME280;32999;52.412;4.890;2023-02-07T21:55:18;104014.22;;;1.44;100.00
47260;BME280;32999;52.412;4.890;2023-02-07T22:00:21;104009.03;;;1.41;100.00
47260;BME280;32999;52.412;4.890;2023-02-07T22:05:24;103915.34;;;0.78;100.00
47260;BME280;32999;52.412;4.890;2023-02-07T22:10:26;104003.16;;;1.32;100.00
47260;BME280;32999;52.412;4.890;2023-02-07T22:15:28;104009.38;;;1.30;100.00
47260;BME280;32999;52.412;4.890;2023-02-07T22:20:31;104035.84;;;1.25;100.00
47260;BME280;32999;52.412;4.890;2023-02-07T22:25:33;104006.09;;;1.23;100.00
47260;BME280;32999;52.412;4.890;2023-02-07T22:30:35;104029.91;;;1.20;100.00
47260;BME280;32999;52.412;4.890;2023-02-07T22:35:41;104009.81;;;1.16;100.00
47260;BME280;32999;52.412;4.890;2023-02-07T22:40:45;103924.34;;;0.71;100.00
47260;BME280;32999;52.412;4.890;2023-02-07T22:45:47;103989.75;;;1.12;100.00
47260;BME280;32999;52.412;4.890;2023-02-07T22:50:50;103982.84;;;1.08;100.00
47260;BME280;32999;52.412;4.890;2023-02-07T22:55:52;103949.56;;;0.78;100.00
47260;BME280;32999;52.412;4.890;2023-02-07T23:00:54;103992.66;;;1.03;100.00
47260;BME280;32999;52.412;4.890;2023-02-07T23:05:58;103985.72;;;1.00;100.00
47260;BME280;32999;52.412;4.890;2023-02-07T23:11:05;104003.34;;;0.98;100.00
47260;BME280;32999;52.412;4.890;2023-02-07T23:16:10;103919.75;;;0.49;100.00
47260;BME280;32999;52.412;4.890;2023-02-07T23:21:16;103909.56;;;0.37;100.00
47260;BME280;32999;52.412;4.890;2023-02-07T23:26:20;104001.03;;;0.88;100.00
47260;BME280;32999;52.412;4.890;2023-02-07T23:31:23;103942.41;;;0.53;100.00
47260;BME280;32999;52.412;4.890;2023-02-07T23:36:29;103988.72;;;0.59;100.00
47260;BME280;32999;52.412;4.890;2023-02-07T23:41:31;103835.72;;;-0.16;100.00
47260;BME280;32999;52.412;4.890;2023-02-07T23:46:34;104004.84;;;0.78;100.00
47260;BME280;32999;52.412;4.890;2023-02-07T23:51:37;103991.75;;;0.75;100.00
47260;BME280;32999;52.412;4.890;2023-02-07T23:56:39;103996.25;;;0.73;100.00
